Weather at Long Akah Airport

Public forecast

Using degrees Celsius for public forecast. Weather courtesy of forecast.io.

Closest aviation weather report (METAR) to Long Akah Airport

Closest report is Miri Airport, 77.3 nm (143.1 km) NW.

2024/05/20 19:00 (retrieved 55 minutes ago)

WBGR 201900Z VRB03KT 9999 SCT016 27/25 Q1007

Closest aviation forecast (TAF) to Long Akah Airport

Closest forecast is Miri Airport, 77.3 nm (143.1 km) NW.

2024/05/20 18:00 (retrieved 2 hours ago)

TAF WBGR 201700Z 2018/2118 13005KT 9999 FEW016